createdAt,value
2018-12-26T00:00:23.060Z,28.1
2018-12-26T00:01:12.948Z,28.9
2018-12-26T00:02:03.593Z,29.8
2018-12-26T00:02:55.335Z,30.6
2018-12-26T00:03:43.172Z,31.1
2018-12-26T00:04:33.104Z,31.5
2018-12-26T00:05:24.141Z,31.8
2018-12-26T00:06:13.669Z,32.1
2018-12-26T00:07:03.744Z,32.4
2018-12-26T00:07:52.742Z,32.6
2018-12-26T00:08:43.747Z,32.8
2018-12-26T00:09:35.900Z,33
2018-12-26T00:10:22.834Z,33.2
2018-12-26T00:11:12.956Z,33.3
2018-12-26T00:12:02.389Z,33.5
2018-12-26T00:12:52.243Z,33.6
2018-12-26T00:13:42.476Z,33.7
2018-12-26T00:14:33.597Z,33.8
2018-12-26T00:32:43.863Z,32.7
2018-12-26T00:33:34.100Z,33.1
2018-12-26T00:34:24.073Z,33.3
2018-12-26T00:35:13.598Z,33.5
2018-12-26T00:36:03.810Z,33.7
2018-12-26T00:36:53.695Z,33.8
2018-12-26T00:37:43.735Z,34
2018-12-26T00:38:33.800Z,34.1
2018-12-26T00:39:22.462Z,34.2
2018-12-26T00:40:13.074Z,34.3
2018-12-26T00:41:04.480Z,34.4
2018-12-26T00:41:54.008Z,34.4
2018-12-26T00:42:45.679Z,34.5
2018-12-26T00:43:34.574Z,34.6
2018-12-26T00:44:24.094Z,34
2018-12-26T00:45:14.427Z,33.8
2018-12-26T00:46:04.689Z,33.5
2018-12-26T00:46:55.094Z,33.3
2018-12-26T00:47:45.349Z,33.2
2018-12-26T00:48:35.494Z,33
2018-12-26T00:49:25.014Z,32.9
2018-12-26T00:50:15.331Z,32.7
2018-12-26T00:51:05.439Z,32.5
2018-12-26T00:51:55.056Z,32.4
2018-12-26T00:52:45.481Z,32.3
2018-12-26T00:53:35.099Z,32.2
2018-12-26T00:54:24.501Z,31.7
2018-12-26T00:55:15.056Z,31.4
2018-12-26T00:56:14.156Z,31.2
2018-12-26T00:56:55.874Z,30.9
2018-12-26T00:57:45.537Z,30.8
2018-12-26T00:58:35.966Z,30.7
2018-12-26T00:59:24.854Z,30.5
2018-12-26T01:00:14.978Z,30.4
2018-12-26T01:01:05.998Z,30.3
2018-12-26T01:01:55.349Z,30.1
2018-12-26T01:02:45.376Z,30
2018-12-26T01:03:36.818Z,29.9
2018-12-26T01:04:26.224Z,29.4
2018-12-26T01:05:16.078Z,29.3
2018-12-26T01:06:05.063Z,30.1
2018-12-26T01:06:56.940Z,30.7
2018-12-26T01:07:47.244Z,31.3
2018-12-26T01:08:36.851Z,31.6
2018-12-26T01:09:25.471Z,31.8
2018-12-26T01:10:16.915Z,32.1
2018-12-26T01:11:05.745Z,32.3
2018-12-26T01:11:56.500Z,32.5
2018-12-26T01:12:46.482Z,32.8
2018-12-26T01:13:35.851Z,32.9
2018-12-26T01:14:27.047Z,33.1
2018-12-26T01:15:16.090Z,33.3
2018-12-26T01:16:07.039Z,33.4
2018-12-26T01:16:56.634Z,33.5
2018-12-26T01:17:46.080Z,33.6
2018-12-26T01:18:37.835Z,33.7
2018-12-26T01:19:25.920Z,33.8
2018-12-26T01:20:17.857Z,33.9
2018-12-26T01:21:06.229Z,34
2018-12-26T01:21:57.012Z,34.1
2018-12-26T01:22:46.225Z,34.1
2018-12-26T01:23:38.146Z,34.3
2018-12-26T01:24:27.302Z,34.3
2018-12-26T01:25:17.622Z,34.4
2018-12-26T01:26:07.757Z,34.4
2018-12-26T01:26:58.147Z,34.5
2018-12-26T01:27:48.099Z,34.6
2018-12-26T01:28:37.302Z,34.6
2018-12-26T01:29:27.301Z,34.6
2018-12-26T01:30:18.236Z,34.3
2018-12-26T01:31:08.384Z,33.8
2018-12-26T01:31:58.421Z,33.6
2018-12-26T01:32:47.044Z,33.4
2018-12-26T01:33:37.821Z,33.2
2018-12-26T01:34:28.501Z,33.1
2018-12-26T01:35:17.906Z,32.9
2018-12-26T01:36:07.372Z,32.7
2018-12-26T01:36:58.031Z,32.6
2018-12-26T01:37:48.496Z,32.4
2018-12-26T01:38:39.483Z,32.2
2018-12-26T01:39:29.173Z,32.1
2018-12-26T01:40:18.693Z,31.6
2018-12-26T01:41:09.337Z,31.4
2018-12-26T01:41:58.761Z,31.1
2018-12-26T01:42:48.951Z,31
2018-12-26T01:43:38.910Z,30.8
2018-12-26T01:44:29.069Z,30.6
2018-12-26T01:45:18.851Z,30.5
2018-12-26T01:46:09.136Z,30.4
2018-12-26T01:46:58.388Z,30.2
2018-12-26T01:47:48.506Z,30.1
2018-12-26T01:48:38.191Z,29.9
2018-12-26T01:49:29.549Z,29.8
2018-12-26T01:50:18.538Z,29.3
2018-12-26T01:51:08.037Z,29.4
2018-12-26T01:51:59.743Z,30.1
2018-12-26T01:52:49.098Z,30.8
2018-12-26T01:53:40.409Z,31.4
2018-12-26T01:54:30.023Z,31.6
2018-12-26T01:55:19.426Z,31.9
2018-12-26T01:56:10.535Z,32.1
2018-12-26T01:57:00.333Z,32.3
2018-12-26T01:57:49.323Z,32.4
2018-12-26T01:58:40.195Z,32.7
2018-12-26T01:59:29.712Z,32.9
2018-12-26T02:00:20.672Z,33.1
2018-12-26T02:01:10.777Z,33.2
2018-12-26T02:02:00.160Z,33.4
2018-12-26T02:02:50.191Z,33.5
2018-12-26T02:03:40.360Z,33.6
2018-12-26T02:04:29.209Z,33.7
2018-12-26T02:05:20.995Z,33.8
2018-12-26T02:06:10.182Z,33.9
2018-12-26T02:06:59.801Z,33.9
2018-12-26T02:07:50.950Z,34.1
2018-12-26T02:08:39.867Z,34.1
2018-12-26T02:09:31.349Z,34.2
2018-12-26T02:10:20.638Z,34.3
2018-12-26T02:11:10.027Z,34.3
2018-12-26T02:12:00.851Z,34.1
2018-12-26T02:12:50.084Z,33.2
2018-12-26T02:13:38.614Z,31.4
2018-12-26T02:14:31.306Z,29.6
2018-12-26T02:15:22.287Z,28.1
2018-12-26T02:16:10.266Z,28
2018-12-26T02:17:01.749Z,28.1
2018-12-26T02:17:50.704Z,29.4
2018-12-26T02:18:40.734Z,30.6
2018-12-26T02:19:31.501Z,31.2
2018-12-26T02:20:21.342Z,31.7
2018-12-26T02:21:10.699Z,32.1
2018-12-26T02:22:01.258Z,32.4
2018-12-26T02:22:51.984Z,32.8
2018-12-26T02:23:41.669Z,33
2018-12-26T02:24:31.136Z,33.2
2018-12-26T02:25:22.635Z,33.4
2018-12-26T02:26:12.353Z,33.6
2018-12-26T02:27:00.745Z,33.7
2018-12-26T02:27:52.003Z,33.8
2018-12-26T02:28:41.928Z,33.9
2018-12-26T02:29:30.628Z,34.1
2018-12-26T02:30:21.983Z,34.1
2018-12-26T02:31:12.008Z,34.2
2018-12-26T02:32:02.689Z,34.3
2018-12-26T02:32:51.024Z,34.4
2018-12-26T02:33:42.478Z,34.4
2018-12-26T02:34:32.207Z,34.5
2018-12-26T02:35:22.522Z,34.6
2018-12-26T02:36:11.815Z,34.6
2018-12-26T02:37:03.035Z,34.7
2018-12-26T02:37:52.756Z,34.7
2018-12-26T02:38:43.370Z,34
2018-12-26T02:39:33.088Z,33.7
2018-12-26T02:40:23.201Z,33.4
2018-12-26T02:41:13.061Z,33.2
2018-12-26T02:42:03.767Z,33
2018-12-26T02:42:52.977Z,32.8
2018-12-26T02:43:42.498Z,32.6
2018-12-26T02:44:32.812Z,32.4
2018-12-26T02:45:23.055Z,32.3
2018-12-26T02:46:13.022Z,32.1
2018-12-26T02:47:02.677Z,32
2018-12-26T02:47:52.845Z,31.8
2018-12-26T02:48:42.899Z,31.4
2018-12-26T02:49:34.487Z,31.1
2018-12-26T02:50:23.287Z,30.9
2018-12-26T02:51:13.885Z,30.7
2018-12-26T02:52:03.922Z,30.5
2018-12-26T02:52:52.931Z,30.4
2018-12-26T02:53:43.366Z,30.3
2018-12-26T02:54:34.680Z,29.9
2018-12-26T02:55:23.860Z,29.6
2018-12-26T02:56:14.131Z,30.3
2018-12-26T02:57:03.693Z,31
2018-12-26T02:57:53.765Z,31.6
2018-12-26T02:58:44.117Z,31.8
2018-12-26T02:59:33.954Z,32
2018-12-26T03:00:24.258Z,32.3
2018-12-26T03:01:13.579Z,32.4
2018-12-26T03:02:04.722Z,32.6
2018-12-26T03:02:54.958Z,32.8
2018-12-26T03:03:44.299Z,33
2018-12-26T03:04:33.922Z,33.2
2018-12-26T03:05:24.642Z,33.3
2018-12-26T03:06:13.934Z,33.4
2018-12-26T03:07:03.770Z,33.5
2018-12-26T03:07:54.684Z,33.6
2018-12-26T03:08:43.715Z,33.8
2018-12-26T03:09:33.807Z,33.9
2018-12-26T03:10:24.211Z,33.9
2018-12-26T03:11:14.303Z,34
2018-12-26T03:12:04.229Z,34.1
2018-12-26T03:12:55.625Z,34.1
2018-12-26T03:13:44.069Z,34.3
2018-12-26T03:14:35.243Z,34.3
2018-12-26T03:15:25.645Z,34.4
2018-12-26T03:16:14.805Z,34.4
2018-12-26T03:17:05.250Z,34.5
2018-12-26T03:17:54.928Z,34.5
2018-12-26T03:18:45.973Z,34.6
2018-12-26T03:19:35.635Z,34.6
2018-12-26T03:20:24.879Z,34.7
2018-12-26T03:21:16.186Z,34.7
2018-12-26T03:22:06.737Z,34.1
2018-12-26T03:22:55.423Z,33.8
2018-12-26T03:23:45.632Z,33.4
2018-12-26T03:24:36.395Z,33.2
2018-12-26T03:25:25.587Z,33
2018-12-26T03:26:15.979Z,32.8
2018-12-26T03:27:06.316Z,32.6
2018-12-26T03:27:56.047Z,32.4
2018-12-26T03:28:44.558Z,32.3
2018-12-26T03:29:36.556Z,32.1
2018-12-26T03:30:27.099Z,31.9
2018-12-26T03:31:16.111Z,31.8
2018-12-26T03:32:07.087Z,31.6
2018-12-26T03:32:57.012Z,31.1
2018-12-26T03:33:46.735Z,30.9
2018-12-26T03:34:36.788Z,30.7
2018-12-26T03:35:26.598Z,30.5
2018-12-26T03:36:17.065Z,30.3
2018-12-26T03:37:07.372Z,30.3
2018-12-26T03:37:57.092Z,29.6
2018-12-26T03:38:47.332Z,30.1
2018-12-26T03:39:35.950Z,30.8
2018-12-26T03:40:26.697Z,31.5
2018-12-26T03:41:16.518Z,31.8
2018-12-26T03:42:07.348Z,31.9
2018-12-26T03:42:56.606Z,32.1
2018-12-26T03:43:46.629Z,32.3
2018-12-26T03:44:36.868Z,32.5
2018-12-26T03:45:27.861Z,32.7
2018-12-26T03:46:16.746Z,32.9
2018-12-26T03:47:07.651Z,33.1
2018-12-26T03:47:57.248Z,33.3
2018-12-26T03:48:47.850Z,33.4
2018-12-26T03:49:38.368Z,33.5
2018-12-26T03:50:27.131Z,33.6
2018-12-26T03:51:17.427Z,32.8
2018-12-26T03:52:10.820Z,31.6
2018-12-26T03:52:58.459Z,29.8
2018-12-26T03:53:47.842Z,28.2
2018-12-26T03:54:37.922Z,26.9
2018-12-26T03:55:28.280Z,26.4
2018-12-26T03:56:17.598Z,26.4
2018-12-26T03:57:16.712Z,27.7
2018-12-26T03:57:56.488Z,29.1
2018-12-26T03:58:47.890Z,30
2018-12-26T03:59:38.855Z,30.8
2018-12-26T04:00:28.649Z,31.4
2018-12-26T04:01:18.338Z,31.8
2018-12-26T04:02:08.875Z,32.1
2018-12-26T04:02:58.478Z,32.3
2018-12-26T04:03:48.252Z,32.6
2018-12-26T04:04:37.821Z,32.8
2018-12-26T04:05:27.835Z,33
2018-12-26T04:06:17.920Z,33.3
2018-12-26T04:07:08.074Z,33.3
2018-12-26T04:07:58.781Z,33.5
2018-12-26T04:08:48.365Z,33.6
2018-12-26T04:09:38.917Z,33.8
2018-12-26T04:10:28.749Z,33.8
2018-12-26T04:11:19.640Z,33.9
2018-12-26T04:12:09.445Z,34
2018-12-26T04:12:58.742Z,34.1
2018-12-26T04:13:48.710Z,34.1
2018-12-26T04:14:39.267Z,34.2
2018-12-26T04:15:28.392Z,34.3
2018-12-26T04:16:18.940Z,34.4
2018-12-26T04:17:09.122Z,34.4
2018-12-26T04:18:00.309Z,34.4
2018-12-26T04:18:49.354Z,34.5
2018-12-26T04:19:39.606Z,34.6
2018-12-26T04:20:29.307Z,34.6
2018-12-26T04:21:19.354Z,34.6
2018-12-26T04:22:08.334Z,34.7
2018-12-26T04:22:58.911Z,34.8
2018-12-26T04:23:49.081Z,34.1
2018-12-26T04:24:40.039Z,33.8
2018-12-26T04:25:30.184Z,33.4
2018-12-26T04:26:18.623Z,33.2
2018-12-26T04:27:19.553Z,32.9
2018-12-26T04:27:59.271Z,32.7
2018-12-26T04:28:49.229Z,32.6
2018-12-26T04:29:38.724Z,32.4
2018-12-26T04:30:30.478Z,32.2
2018-12-26T04:31:20.617Z,32.1
2018-12-26T04:32:09.812Z,31.9
2018-12-26T04:32:59.173Z,31.8
2018-12-26T04:33:49.309Z,31.4
2018-12-26T04:34:39.865Z,31.1
2018-12-26T04:35:29.617Z,30.9
2018-12-26T04:36:20.123Z,30.8
2018-12-26T04:37:10.907Z,30.6
2018-12-26T04:38:00.080Z,30.3
2018-12-26T04:38:49.908Z,29.8
2018-12-26T04:39:40.768Z,30.4
2018-12-26T04:40:29.860Z,31.2
2018-12-26T04:41:20.293Z,31.8
2018-12-26T04:42:10.384Z,31.9
2018-12-26T04:42:59.107Z,32.1
2018-12-26T04:43:53.093Z,32.3
2018-12-26T04:44:40.965Z,32.4
2018-12-26T05:02:03.294Z,34.6
2018-12-26T05:02:52.922Z,34.6
2018-12-26T05:03:42.617Z,34.7
2018-12-26T05:04:32.348Z,34.7
2018-12-26T05:05:23.373Z,34.8
2018-12-26T05:06:13.664Z,34.1
2018-12-26T05:07:02.399Z,33.8
2018-12-26T05:07:53.392Z,33.4
2018-12-26T05:08:43.678Z,33.2
2018-12-26T05:09:34.147Z,32.9
2018-12-26T05:10:23.156Z,32.8
2018-12-26T05:11:13.946Z,32.5
2018-12-26T05:12:05.650Z,32.3
2018-12-26T05:12:53.526Z,32.2
2018-12-26T05:13:44.079Z,32
2018-12-26T05:14:34.066Z,31.8
2018-12-26T05:15:23.801Z,31.7
2018-12-26T05:16:13.270Z,31.3
2018-12-26T05:17:03.568Z,31.3
2018-12-26T05:17:54.046Z,32.1
2018-12-26T05:18:43.359Z,32.4
2018-12-26T05:19:33.874Z,32.5
2018-12-26T05:20:23.781Z,32.6
2018-12-26T05:21:14.049Z,32.7
2018-12-26T05:22:03.963Z,32.8
2018-12-26T05:22:54.540Z,32.9
2018-12-26T05:23:45.208Z,33.1
2018-12-26T05:24:34.057Z,32.6
2018-12-26T05:25:23.160Z,31.9
2018-12-26T05:26:14.456Z,30.4
2018-12-26T05:27:04.237Z,29
2018-12-26T05:27:56.240Z,27.3
2018-12-26T05:28:45.575Z,25.9
2018-12-26T05:29:34.695Z,25.6
2018-12-26T05:30:25.037Z,25.5
2018-12-26T05:31:15.170Z,26.8
2018-12-26T05:32:05.334Z,28.2
2018-12-26T05:32:54.314Z,29.4
2018-12-26T05:33:45.782Z,30.4
2018-12-26T05:34:34.989Z,31.1
2018-12-26T05:35:25.142Z,31.5
2018-12-26T05:36:15.357Z,31.9
2018-12-26T05:37:04.624Z,32.1
2018-12-26T05:37:55.456Z,32.4
2018-12-26T05:38:45.864Z,32.7
2018-12-26T05:39:34.741Z,32.9
2018-12-26T05:40:25.664Z,33.1
2018-12-26T05:41:15.488Z,33.3
2018-12-26T05:42:06.274Z,33.4
2018-12-26T05:42:55.748Z,33.6
2018-12-26T05:43:46.218Z,33.7
2018-12-26T05:44:35.094Z,33.8
2018-12-26T05:45:26.577Z,33.9
2018-12-26T05:46:16.311Z,33.9
2018-12-26T05:47:06.885Z,34.1
2018-12-26T05:47:56.538Z,34.1
2018-12-26T05:48:45.636Z,34.2
2018-12-26T05:49:37.133Z,34.3
2018-12-26T05:50:26.391Z,34.3
2018-12-26T05:51:16.436Z,34.4
2018-12-26T05:52:05.083Z,34.4
2018-12-26T05:52:56.940Z,34.5
2018-12-26T05:53:46.583Z,34.6
2018-12-26T05:54:36.298Z,34.6
2018-12-26T05:55:26.361Z,34.7
2018-12-26T05:56:16.983Z,34.7
2018-12-26T05:57:06.304Z,34.8
2018-12-26T05:57:55.485Z,34.3
2018-12-26T05:58:46.987Z,33.9
2018-12-26T05:59:37.272Z,33.6
2018-12-26T06:00:25.546Z,33.2
2018-12-26T06:01:15.945Z,32.9
2018-12-26T06:02:08.167Z,32.8
2018-12-26T06:02:57.395Z,32.5
2018-12-26T06:03:46.380Z,32.3
2018-12-26T06:04:37.358Z,32.1
2018-12-26T06:05:26.948Z,31.9
2018-12-26T06:06:17.768Z,31.8
2018-12-26T06:07:08.007Z,31.8
2018-12-26T06:07:57.250Z,31.6
2018-12-26T06:08:47.859Z,31.5
2018-12-26T06:09:37.331Z,31.4
2018-12-26T06:10:28.087Z,31.3
2018-12-26T06:11:18.017Z,31.1
2018-12-26T06:12:08.625Z,30.6
2018-12-26T06:12:58.887Z,30.2
2018-12-26T06:13:48.191Z,30.8
2018-12-26T06:14:37.514Z,31.4
2018-12-26T06:15:27.182Z,31.8
2018-12-26T06:16:17.499Z,32
2018-12-26T06:17:07.864Z,32.2
2018-12-26T06:17:58.526Z,32.3
2018-12-26T06:18:47.494Z,32.5
2018-12-26T06:19:37.691Z,32.7
2018-12-26T06:20:28.962Z,32.9
2018-12-26T06:21:18.709Z,33.1
2018-12-26T06:22:08.455Z,33.2
2018-12-26T06:22:58.860Z,33.4
2018-12-26T06:23:48.225Z,33.4
2018-12-26T06:24:38.634Z,33.6
2018-12-26T06:25:28.200Z,33.7
2018-12-26T06:26:19.415Z,33.8
2018-12-26T06:27:08.870Z,33.9
2018-12-26T06:28:01.325Z,33.9
2018-12-26T06:28:49.087Z,34
2018-12-26T06:29:38.580Z,34.1
2018-12-26T06:30:28.660Z,34.2
2018-12-26T06:31:19.452Z,34.3
2018-12-26T06:32:08.569Z,34.3
2018-12-26T06:32:58.374Z,34.4
2018-12-26T06:33:49.251Z,34.4
2018-12-26T06:34:40.122Z,34.5
2018-12-26T06:35:29.957Z,34.6
2018-12-26T06:36:19.699Z,34.6
2018-12-26T06:37:09.180Z,34.6
2018-12-26T06:38:01.414Z,34.7
2018-12-26T06:38:50.333Z,34.8
2018-12-26T06:39:39.104Z,34.8
2018-12-26T06:40:30.253Z,34.3
2018-12-26T06:41:19.314Z,34.1
2018-12-26T06:42:09.533Z,33.8
2018-12-26T06:43:00.497Z,33.3
2018-12-26T06:43:50.339Z,33
2018-12-26T06:44:42.831Z,32.8
2018-12-26T06:45:28.911Z,32.5
2018-12-26T06:46:20.376Z,32.3
2018-12-26T06:47:10.728Z,32.1
2018-12-26T06:48:00.786Z,31.9
2018-12-26T06:48:50.636Z,31.8
2018-12-26T06:49:40.313Z,31.7
2018-12-26T06:50:30.271Z,31.7
2018-12-26T06:51:21.316Z,31.5
2018-12-26T06:52:10.249Z,31.4
2018-12-26T06:53:00.563Z,31.3
2018-12-26T06:53:50.438Z,31.1
2018-12-26T06:54:40.390Z,31
2018-12-26T06:55:30.751Z,30.1
2018-12-26T06:56:21.338Z,30.4
2018-12-26T06:57:11.173Z,31.1
2018-12-26T06:58:10.113Z,31.6
2018-12-26T06:58:51.035Z,31.9
2018-12-26T06:59:41.657Z,32.1
2018-12-26T07:00:29.130Z,32.3
2018-12-26T07:01:21.344Z,32.4
2018-12-26T07:02:10.117Z,32.2
2018-12-26T07:03:01.587Z,31.4
2018-12-26T07:03:51.427Z,30
2018-12-26T07:04:42.221Z,28.6
2018-12-26T07:05:31.749Z,26.8
2018-12-26T07:06:20.987Z,25.8
2018-12-26T07:07:11.042Z,25.8
2018-12-26T07:08:01.321Z,26.3
2018-12-26T07:09:42.062Z,29
2018-12-26T07:10:30.471Z,30.1
2018-12-26T07:11:22.675Z,30.9
2018-12-26T07:12:10.655Z,31.4
2018-12-26T07:13:01.470Z,31.8
2018-12-26T07:13:50.657Z,32.1
2018-12-26T07:14:42.391Z,32.3
2018-12-26T07:15:32.742Z,32.6
2018-12-26T07:16:24.552Z,32.9
2018-12-26T07:17:12.284Z,33.1
2018-12-26T07:18:01.977Z,33.3
2018-12-26T07:18:51.849Z,33.4
2018-12-26T07:19:42.675Z,33.6
2018-12-26T07:20:32.863Z,33.7
2018-12-26T07:21:21.639Z,33.8
2018-12-26T07:22:12.567Z,33.9
2018-12-26T07:23:02.984Z,34
2018-12-26T07:23:52.766Z,34.1
2018-12-26T07:24:42.041Z,34.2
2018-12-26T07:25:32.226Z,34.3
2018-12-26T07:26:22.541Z,34.4
2018-12-26T07:27:12.396Z,34.4
2018-12-26T07:28:12.466Z,34.5
2018-12-26T07:28:53.256Z,34.6
2018-12-26T07:29:42.581Z,34.6
2018-12-26T07:30:33.686Z,34.7
2018-12-26T07:31:23.214Z,34.8
2018-12-26T07:32:14.366Z,34.8
2018-12-26T07:33:03.573Z,34.8
2018-12-26T07:33:53.438Z,34.4
2018-12-26T07:34:51.616Z,34.1
2018-12-26T07:35:32.901Z,33.8
2018-12-26T07:36:24.213Z,33.4
2018-12-26T07:37:14.141Z,33.1
2018-12-26T07:38:03.366Z,32.8
2018-12-26T07:38:53.978Z,32.6
2018-12-26T07:39:44.525Z,32.3
2018-12-26T07:40:33.815Z,32.1
2018-12-26T07:41:23.185Z,31.9
2018-12-26T07:42:14.200Z,31.8
2018-12-26T07:43:03.875Z,31.6
2018-12-26T07:43:53.350Z,31.6
2018-12-26T07:44:44.257Z,31.5
2018-12-26T07:45:33.118Z,31.4
2018-12-26T07:46:23.900Z,31.3
2018-12-26T07:47:14.687Z,31.1
2018-12-26T07:48:03.847Z,30.8
2018-12-26T07:48:54.222Z,30.1
2018-12-26T07:49:45.165Z,30.8
2018-12-26T07:50:33.297Z,31.4
2018-12-26T07:51:24.612Z,31.8
2018-12-26T07:52:15.582Z,32
2018-12-26T07:53:04.457Z,32.3
2018-12-26T07:53:54.759Z,32.4
2018-12-26T07:54:45.612Z,32.6
2018-12-26T07:55:34.894Z,32.9
2018-12-26T07:56:25.477Z,33.1
2018-12-26T07:57:15.080Z,33.3
2018-12-26T07:58:05.258Z,33.4
2018-12-26T07:58:54.512Z,33.6
2018-12-26T07:59:47.338Z,33.7
2018-12-26T08:00:35.924Z,33.8
2018-12-26T08:01:26.239Z,33.9
2018-12-26T08:02:15.021Z,34
2018-12-26T08:03:06.006Z,34.1
2018-12-26T08:03:54.429Z,34.2
2018-12-26T08:04:45.842Z,34.3
2018-12-26T08:05:35.301Z,34.4
2018-12-26T08:06:26.264Z,34.4
2018-12-26T08:07:15.111Z,34.6
2018-12-26T08:08:06.121Z,34.6
2018-12-26T08:08:55.504Z,34.7
2018-12-26T08:09:45.276Z,34.8
2018-12-26T08:10:35.634Z,34.8
2018-12-26T08:11:26.226Z,34.8
2018-12-26T08:12:15.431Z,34.2
2018-12-26T08:13:05.216Z,33.9
2018-12-26T08:13:56.154Z,33.6
2018-12-26T08:14:45.638Z,33.1
2018-12-26T08:15:35.345Z,32.9
2018-12-26T08:16:25.975Z,32.7
2018-12-26T08:17:16.743Z,32.4
2018-12-26T08:18:07.070Z,32.3
2018-12-26T08:18:56.478Z,32.1
2018-12-26T08:19:46.203Z,31.9
2018-12-26T08:20:36.375Z,31.8
2018-12-26T08:21:26.647Z,31.7
2018-12-26T08:22:16.738Z,31.5
2018-12-26T08:23:07.299Z,31.4
2018-12-26T08:23:57.455Z,31.3
2018-12-26T08:24:47.118Z,31.1
2018-12-26T08:25:37.872Z,31
2018-12-26T08:26:25.908Z,30.1
2018-12-26T08:27:17.280Z,30.6
2018-12-26T08:28:06.586Z,31.4
2018-12-26T08:28:57.127Z,31.8
2018-12-26T08:29:46.355Z,32.1
2018-12-26T08:30:36.768Z,32.3
2018-12-26T08:31:26.982Z,32.5
2018-12-26T08:32:17.762Z,32.7
2018-12-26T08:33:07.929Z,32.9
2018-12-26T08:33:57.488Z,33.1
2018-12-26T08:34:47.395Z,33.3
2018-12-26T08:35:37.844Z,33.5
2018-12-26T08:36:28.120Z,33.6
2018-12-26T08:37:16.941Z,33.8
2018-12-26T08:38:08.416Z,33.9
2018-12-26T08:38:58.105Z,34.1
2018-12-26T08:39:48.539Z,33.9
2018-12-26T08:40:38.202Z,33
2018-12-26T08:41:28.184Z,31.3
2018-12-26T08:42:18.856Z,29.8
2018-12-26T08:43:07.592Z,28.1
2018-12-26T08:43:58.319Z,27.4
2018-12-26T08:44:47.107Z,27.3
2018-12-26T08:45:37.534Z,28.2
2018-12-26T08:46:28.702Z,29.6
2018-12-26T08:47:18.911Z,30.8
2018-12-26T08:48:09.286Z,31.4
2018-12-26T08:48:58.744Z,31.9
2018-12-26T08:49:48.563Z,32.4
2018-12-26T08:50:39.176Z,32.7
2018-12-26T08:51:29.219Z,33.1
2018-12-26T08:52:34.014Z,33.3
2018-12-26T08:53:07.944Z,33.6
2018-12-26T08:53:59.346Z,33.7
2018-12-26T08:54:48.616Z,33.9
2018-12-26T08:55:39.531Z,34.1
2018-12-26T08:56:28.624Z,34.2
2018-12-26T08:57:19.981Z,34.3
2018-12-26T08:58:08.998Z,34.5
2018-12-26T08:59:00.751Z,34.6
2018-12-26T08:59:48.181Z,34.7
2018-12-26T09:00:39.296Z,34.8
2018-12-26T09:16:33.012Z,31.1
2018-12-26T09:17:23.489Z,30.5
2018-12-26T09:18:13.679Z,30.4
2018-12-26T09:19:03.894Z,31.1
2018-12-26T09:19:54.087Z,31.9
2018-12-26T09:20:44.196Z,32.1
2018-12-26T09:21:33.350Z,32.3
2018-12-26T09:22:24.106Z,32.4
2018-12-26T09:23:15.934Z,32.7
2018-12-26T09:24:04.468Z,32.9
2018-12-26T09:24:53.509Z,33.1
2018-12-26T09:25:43.532Z,33.3
2018-12-26T09:26:33.470Z,33.5
2018-12-26T09:27:24.449Z,33.6
2018-12-26T09:28:12.381Z,33.8
2018-12-26T09:29:04.076Z,33.9
2018-12-26T09:29:55.866Z,34.1
2018-12-26T09:30:44.206Z,34.1
2018-12-26T09:31:33.705Z,34.3
2018-12-26T09:32:23.893Z,34.4
2018-12-26T09:33:14.048Z,34.4
2018-12-26T09:34:04.003Z,34.6
2018-12-26T09:34:54.043Z,34.6
2018-12-26T09:35:45.163Z,34.8
2018-12-26T09:36:34.880Z,34.8
2018-12-26T09:37:24.557Z,34.9
2018-12-26T09:38:14.125Z,34.4
2018-12-26T09:39:04.145Z,34.1
2018-12-26T09:39:54.755Z,33.8
2018-12-26T09:40:44.827Z,33.4
2018-12-26T09:41:34.722Z,33.2
2018-12-26T09:42:25.583Z,32.9
2018-12-26T09:43:15.019Z,32.7
2018-12-26T09:44:05.352Z,32.5
2018-12-26T09:45:03.882Z,32.3
2018-12-26T09:45:44.648Z,32.1
2018-12-26T09:46:35.022Z,32
2018-12-26T09:47:25.705Z,32
2018-12-26T09:48:15.352Z,31.8
2018-12-26T09:49:04.868Z,31.7
2018-12-26T09:49:55.524Z,31.6
2018-12-26T09:50:44.999Z,31.4
2018-12-26T09:51:36.131Z,31.3
2018-12-26T09:52:25.884Z,30.8
2018-12-26T09:53:15.726Z,30.4
2018-12-26T09:54:05.106Z,31.2
2018-12-26T09:54:57.361Z,31.9
2018-12-26T09:55:45.031Z,32.1
2018-12-26T09:56:35.657Z,32.3
2018-12-26T09:57:26.718Z,32.5
2018-12-26T09:58:15.938Z,32.7
2018-12-26T09:59:06.096Z,32.9
2018-12-26T09:59:55.032Z,33.1
2018-12-26T10:00:46.353Z,33.3
2018-12-26T10:01:35.556Z,33.4
2018-12-26T10:02:26.121Z,33.6
2018-12-26T10:03:15.703Z,33.8
2018-12-26T10:04:06.143Z,33.9
2018-12-26T10:04:57.113Z,34.1
2018-12-26T10:05:47.035Z,34.2
2018-12-26T10:06:36.654Z,34.3
2018-12-26T10:07:26.498Z,34.4
2018-12-26T10:08:17.950Z,34.5
2018-12-26T10:09:07.018Z,34.6
2018-12-26T10:09:55.783Z,34.7
2018-12-26T10:10:46.937Z,34.8
2018-12-26T10:11:36.822Z,34.8
2018-12-26T10:12:27.403Z,34.9
2018-12-26T10:13:17.150Z,34.9
2018-12-26T10:14:06.360Z,34.4
2018-12-26T10:14:56.692Z,34.1
2018-12-26T10:15:47.303Z,33.6
2018-12-26T10:16:37.065Z,33.3
2018-12-26T10:17:27.751Z,33
2018-12-26T10:18:16.320Z,32.8
2018-12-26T10:19:06.945Z,32.6
2018-12-26T10:19:59.737Z,32.4
2018-12-26T10:20:48.109Z,32.2
2018-12-26T10:21:38.213Z,32
2018-12-26T10:22:28.149Z,31.9
2018-12-26T10:23:18.397Z,31.7
2018-12-26T10:24:08.786Z,31.7
2018-12-26T10:24:57.566Z,31.6
2018-12-26T10:25:48.279Z,31.4
2018-12-26T10:26:38.009Z,31.3
2018-12-26T10:27:28.862Z,31.2
2018-12-26T10:28:19.189Z,30.6
2018-12-26T10:29:10.614Z,30.4
2018-12-26T10:29:58.884Z,31.3
2018-12-26T10:30:47.396Z,31.9
2018-12-26T10:31:39.152Z,32.1
2018-12-26T10:32:27.547Z,32.3
2018-12-26T10:33:19.124Z,32.5
2018-12-26T10:34:09.566Z,32.8
2018-12-26T10:34:58.810Z,32.9
2018-12-26T10:35:48.601Z,32.1
2018-12-26T10:36:38.356Z,31.2
2018-12-26T10:37:28.216Z,29.6
2018-12-26T10:38:18.327Z,28.1
2018-12-26T10:39:08.826Z,26.4
2018-12-26T10:39:59.581Z,24.9
2018-12-26T10:40:49.893Z,24
2018-12-26T10:41:39.653Z,24.1
2018-12-26T10:42:29.015Z,25
2018-12-26T10:43:19.921Z,26.7
2018-12-26T10:44:07.909Z,28.2
2018-12-26T10:44:58.416Z,29.5
2018-12-26T10:45:49.543Z,30.5
2018-12-26T10:46:39.443Z,31.2
2018-12-26T10:47:29.927Z,31.7
2018-12-26T10:48:20.085Z,32.1
2018-12-26T10:49:09.587Z,32.4
2018-12-26T10:49:59.871Z,32.7
2018-12-26T10:50:50.220Z,33
2018-12-26T10:51:40.061Z,33.3
2018-12-26T10:52:30.325Z,33.4
2018-12-26T10:53:19.786Z,33.6
2018-12-26T10:54:09.912Z,33.8
2018-12-26T10:55:00.201Z,33.9
2018-12-26T10:55:50.378Z,34.1
2018-12-26T10:56:39.512Z,34.3
2018-12-26T10:57:30.662Z,34.4
2018-12-26T10:58:19.959Z,34.4
2018-12-26T10:59:19.074Z,34.6
2018-12-26T10:59:59.424Z,34.6
2018-12-26T11:00:51.124Z,34.8
2018-12-26T11:01:40.699Z,34.8
2018-12-26T11:02:30.157Z,34.9
2018-12-26T11:03:21.302Z,34.9
2018-12-26T11:04:10.802Z,34.5
2018-12-26T11:04:59.942Z,34.2
2018-12-26T11:05:50.407Z,33.9
2018-12-26T11:06:40.463Z,33.5
2018-12-26T11:07:31.612Z,33.2
2018-12-26T11:08:21.184Z,32.9
2018-12-26T11:09:09.819Z,32.8
2018-12-26T11:10:00.827Z,32.5
2018-12-26T11:10:52.129Z,32.3
2018-12-26T11:11:40.929Z,32.1
2018-12-26T11:12:31.196Z,32
2018-12-26T11:13:21.227Z,31.9
2018-12-26T11:14:11.280Z,31.8
2018-12-26T11:15:01.566Z,31.7
2018-12-26T11:15:52.176Z,31.6
2018-12-26T11:16:41.449Z,31.4
2018-12-26T11:17:32.179Z,31.3
2018-12-26T11:18:21.251Z,30.8
2018-12-26T11:19:12.556Z,30.5
2018-12-26T11:20:01.843Z,31.3
2018-12-26T11:20:51.566Z,32.1
2018-12-26T11:21:42.338Z,32.4
2018-12-26T11:22:32.021Z,32.4
2018-12-26T11:23:22.483Z,32.6
2018-12-26T11:24:11.123Z,32.8
2018-12-26T11:25:01.768Z,32.9
2018-12-26T11:25:51.865Z,33.1
2018-12-26T11:26:42.483Z,33.3
2018-12-26T11:27:32.513Z,33.5
2018-12-26T11:28:20.916Z,33.7
2018-12-26T11:29:20.230Z,33.9
2018-12-26T11:30:01.856Z,34.1
2018-12-26T11:30:51.638Z,34.1
2018-12-26T11:31:43.088Z,34.3
2018-12-26T11:32:32.227Z,34.4
2018-12-26T11:33:22.696Z,34.6
2018-12-26T11:34:12.900Z,34.6
2018-12-26T11:35:02.859Z,34.8
2018-12-26T11:35:52.448Z,34.8
2018-12-26T11:36:43.663Z,34.9
2018-12-26T11:37:32.396Z,35
2018-12-26T11:38:23.452Z,34.4
2018-12-26T11:39:13.213Z,34.1
2018-12-26T11:40:03.328Z,33.8
2018-12-26T11:40:53.045Z,33.5
2018-12-26T11:41:43.400Z,33.3
2018-12-26T11:42:32.673Z,33.1
2018-12-26T11:43:23.562Z,32.9
2018-12-26T11:44:13.745Z,32.7
2018-12-26T11:45:03.828Z,32.5
2018-12-26T11:45:52.915Z,32.4
2018-12-26T11:46:43.447Z,32.2
2018-12-26T11:47:34.111Z,32.1
2018-12-26T11:48:23.883Z,32
2018-12-26T11:49:13.936Z,31.8
2018-12-26T11:50:04.042Z,31.6
2018-12-26T11:50:54.042Z,31.5
2018-12-26T11:51:43.765Z,31.4
2018-12-26T11:52:33.807Z,31.1
2018-12-26T11:53:23.125Z,30.4
2018-12-26T11:54:13.702Z,31.1
2018-12-26T11:55:05.044Z,31.9
2018-12-26T11:55:54.412Z,32.3
2018-12-26T11:56:43.279Z,32.4
2018-12-26T11:57:33.510Z,32.6
2018-12-26T11:58:22.915Z,32.8